Cordova, Tennessee
Current Conditions -  °F | °C
As of 7:50 AM on Thursday 18 Dec 2014 (Local Time) from KOLV Reporting Station
Haze Haze  
Wind Chill: 32°   Ceiling: 4000
Heat Index: 36°   Visibility: 5mi
Dew Point: 36°   Wind: 5mph
Humidity: 100%   Direction: 100°E
Pressure: 30.23"   Gusts: NA
Location:  35.16°N, 89.78°W
Report Text: KOLV 181350Z 10004KT 5SM BR OVC040 02/02 A3023
Loading
Personal Weather Stations






























Interactive Weather Map New forecast layout! Learn more

10-Day Weather Forecast

Advertisements
Track Severe Weather on mobile